Shiloh, Texas
Current Conditions -  °F | °C
As of 9:55 PM on Friday 19 Dec 2014 (Local Time) from KLXY Reporting Station
Overcast Overcast  
Wind Chill: 44°   Ceiling: 500
Heat Index: 47°   Visibility: 10mi
Dew Point: 45°   Wind: 7mph
Humidity: 93%   Direction: 10°N
Pressure: 30.19"   Gusts: NA
Location:  31.6887°N, 96.511°W
Report Text: KLXY 200355Z AUTO 01006KT 10SM OVC005 08/07 A3019 RMK AO2 T00830073
Loading
Personal Weather Stations






























Interactive Weather Map New forecast layout! Learn more

10-Day Weather Forecast

Advertisements
Track Severe Weather on mobile